sensor_id;sensor_type;location;lat;lon;timestamp;temperature;humidity
16412;DHT22;8315;52.104;6.304;2022-12-18T00:01:59;-3.50;98.40
16412;DHT22;8315;52.104;6.304;2022-12-18T00:04:26;-3.50;98.40
16412;DHT22;8315;52.104;6.304;2022-12-18T00:06:55;-3.40;98.40
16412;DHT22;8315;52.104;6.304;2022-12-18T00:09:22;-3.50;98.40
16412;DHT22;8315;52.104;6.304;2022-12-18T00:11:49;-3.40;98.40
16412;DHT22;8315;52.104;6.304;2022-12-18T00:14:16;-3.40;98.40
16412;DHT22;8315;52.104;6.304;2022-12-18T00:16:43;-3.50;98.40
16412;DHT22;8315;52.104;6.304;2022-12-18T00:19:11;-3.60;98.40
16412;DHT22;8315;52.104;6.304;2022-12-18T00:21:38;-3.60;98.40
16412;DHT22;8315;52.104;6.304;2022-12-18T00:24:07;-3.60;98.40
16412;DHT22;8315;52.104;6.304;2022-12-18T00:26:34;-3.70;98.40
16412;DHT22;8315;52.104;6.304;2022-12-18T00:29:03;-3.60;98.40
16412;DHT22;8315;52.104;6.304;2022-12-18T00:31:32;-3.70;98.40
16412;DHT22;8315;52.104;6.304;2022-12-18T00:34:00;-3.80;98.40
16412;DHT22;8315;52.104;6.304;2022-12-18T00:36:28;-3.90;98.40
16412;DHT22;8315;52.104;6.304;2022-12-18T00:38:56;-4.10;98.40
16412;DHT22;8315;52.104;6.304;2022-12-18T00:41:25;-4.20;98.40
16412;DHT22;8315;52.104;6.304;2022-12-18T00:44:10;-4.30;98.40
16412;DHT22;8315;52.104;6.304;2022-12-18T00:46:39;-4.40;98.40
16412;DHT22;8315;52.104;6.304;2022-12-18T00:49:06;-4.50;98.40
16412;DHT22;8315;52.104;6.304;2022-12-18T00:51:33;-4.50;98.40
16412;DHT22;8315;52.104;6.304;2022-12-18T00:54:00;-4.50;98.40
16412;DHT22;8315;52.104;6.304;2022-12-18T00:56:28;-4.30;98.40
16412;DHT22;8315;52.104;6.304;2022-12-18T00:58:54;-4.30;98.40
16412;DHT22;8315;52.104;6.304;2022-12-18T01:01:21;-4.30;98.40
16412;DHT22;8315;52.104;6.304;2022-12-18T01:03:48;-4.30;98.40
16412;DHT22;8315;52.104;6.304;2022-12-18T01:06:16;-4.40;98.40
16412;DHT22;8315;52.104;6.304;2022-12-18T01:08:43;-4.50;98.40
16412;DHT22;8315;52.104;6.304;2022-12-18T01:11:12;-4.40;98.40
16412;DHT22;8315;52.104;6.304;2022-12-18T01:13:42;-4.30;98.40
16412;DHT22;8315;52.104;6.304;2022-12-18T01:16:11;-4.30;98.40
16412;DHT22;8315;52.104;6.304;2022-12-18T01:18:38;-4.30;98.40
16412;DHT22;8315;52.104;6.304;2022-12-18T01:21:05;-4.30;98.40
16412;DHT22;8315;52.104;6.304;2022-12-18T01:23:36;-4.30;98.40
16412;DHT22;8315;52.104;6.304;2022-12-18T01:26:04;-4.30;98.40
16412;DHT22;8315;52.104;6.304;2022-12-18T01:28:33;-4.20;98.40
16412;DHT22;8315;52.104;6.304;2022-12-18T01:31:12;-4.30;98.40
16412;DHT22;8315;52.104;6.304;2022-12-18T01:33:40;-4.30;98.40
16412;DHT22;8315;52.104;6.304;2022-12-18T01:36:07;-4.30;98.40
16412;DHT22;8315;52.104;6.304;2022-12-18T01:38:34;-4.40;98.40
16412;DHT22;8315;52.104;6.304;2022-12-18T01:41:01;-4.60;98.40
16412;DHT22;8315;52.104;6.304;2022-12-18T01:43:52;-4.70;98.40
16412;DHT22;8315;52.104;6.304;2022-12-18T01:46:21;-4.70;98.40
16412;DHT22;8315;52.104;6.304;2022-12-18T01:48:51;-4.60;98.40
16412;DHT22;8315;52.104;6.304;2022-12-18T01:51:20;-4.60;98.40
16412;DHT22;8315;52.104;6.304;2022-12-18T01:53:47;-4.60;98.40
16412;DHT22;8315;52.104;6.304;2022-12-18T01:56:15;-4.60;98.40
16412;DHT22;8315;52.104;6.304;2022-12-18T01:58:47;-4.50;98.40
16412;DHT22;8315;52.104;6.304;2022-12-18T02:01:18;-4.60;98.40
16412;DHT22;8315;52.104;6.304;2022-12-18T02:03:47;-4.60;98.40
16412;DHT22;8315;52.104;6.304;2022-12-18T02:06:15;-4.70;98.40
16412;DHT22;8315;52.104;6.304;2022-12-18T02:08:48;-4.80;98.40
16412;DHT22;8315;52.104;6.304;2022-12-18T02:11:23;-4.70;98.40
16412;DHT22;8315;52.104;6.304;2022-12-18T02:13:58;-4.60;98.40
16412;DHT22;8315;52.104;6.304;2022-12-18T02:16:34;-4.60;98.40
16412;DHT22;8315;52.104;6.304;2022-12-18T02:19:06;-4.50;98.40
16412;DHT22;8315;52.104;6.304;2022-12-18T02:21:45;-4.50;98.40
16412;DHT22;8315;52.104;6.304;2022-12-18T02:24:18;-4.60;98.40
16412;DHT22;8315;52.104;6.304;2022-12-18T02:26:56;-4.60;98.40
16412;DHT22;8315;52.104;6.304;2022-12-18T02:29:28;-4.60;98.40
16412;DHT22;8315;52.104;6.304;2022-12-18T02:31:57;-4.60;98.40
16412;DHT22;8315;52.104;6.304;2022-12-18T02:34:27;-4.60;98.40
16412;DHT22;8315;52.104;6.304;2022-12-18T02:36:57;-4.70;98.40
16412;DHT22;8315;52.104;6.304;2022-12-18T02:39:26;-4.70;98.40
16412;DHT22;8315;52.104;6.304;2022-12-18T02:41:59;-4.70;98.40
16412;DHT22;8315;52.104;6.304;2022-12-18T02:44:27;-4.80;98.40
16412;DHT22;8315;52.104;6.304;2022-12-18T02:46:54;-4.90;98.40
16412;DHT22;8315;52.104;6.304;2022-12-18T02:49:24;-4.80;98.40
16412;DHT22;8315;52.104;6.304;2022-12-18T02:52:01;-4.90;98.40
16412;DHT22;8315;52.104;6.304;2022-12-18T02:54:36;-5.00;98.40
16412;DHT22;8315;52.104;6.304;2022-12-18T02:57:12;-4.90;98.40
16412;DHT22;8315;52.104;6.304;2022-12-18T02:59:46;-4.80;98.40
16412;DHT22;8315;52.104;6.304;2022-12-18T03:02:20;-4.80;98.40
16412;DHT22;8315;52.104;6.304;2022-12-18T03:04:53;-4.80;98.40
16412;DHT22;8315;52.104;6.304;2022-12-18T03:07:26;-4.80;98.40
16412;DHT22;8315;52.104;6.304;2022-12-18T03:09:56;-4.90;98.40
16412;DHT22;8315;52.104;6.304;2022-12-18T03:12:28;-4.90;98.40
16412;DHT22;8315;52.104;6.304;2022-12-18T03:14:58;-4.90;98.40
16412;DHT22;8315;52.104;6.304;2022-12-18T03:17:28;-4.80;98.40
16412;DHT22;8315;52.104;6.304;2022-12-18T03:19:58;-4.90;98.40
16412;DHT22;8315;52.104;6.304;2022-12-18T03:22:32;-4.90;98.40
16412;DHT22;8315;52.104;6.304;2022-12-18T03:24:59;-4.90;98.40
16412;DHT22;8315;52.104;6.304;2022-12-18T03:27:29;-4.90;98.40
16412;DHT22;8315;52.104;6.304;2022-12-18T03:30:03;-5.10;98.40
16412;DHT22;8315;52.104;6.304;2022-12-18T03:32:36;-5.20;98.40
16412;DHT22;8315;52.104;6.304;2022-12-18T03:35:06;-5.10;98.40
16412;DHT22;8315;52.104;6.304;2022-12-18T03:37:36;-5.10;98.40
16412;DHT22;8315;52.104;6.304;2022-12-18T03:40:03;-5.10;98.40
16412;DHT22;8315;52.104;6.304;2022-12-18T03:42:36;-5.00;98.40
16412;DHT22;8315;52.104;6.304;2022-12-18T03:45:11;-5.10;98.40
16412;DHT22;8315;52.104;6.304;2022-12-18T03:47:44;-5.40;98.40
16412;DHT22;8315;52.104;6.304;2022-12-18T03:50:20;-5.40;98.40
16412;DHT22;8315;52.104;6.304;2022-12-18T03:52:51;-5.30;98.40
16412;DHT22;8315;52.104;6.304;2022-12-18T03:55:21;-5.20;98.40
16412;DHT22;8315;52.104;6.304;2022-12-18T03:57:56;-5.30;98.40
16412;DHT22;8315;52.104;6.304;2022-12-18T04:00:28;-5.20;98.40
16412;DHT22;8315;52.104;6.304;2022-12-18T04:03:04;-5.10;98.40
16412;DHT22;8315;52.104;6.304;2022-12-18T04:05:39;-5.10;98.40
16412;DHT22;8315;52.104;6.304;2022-12-18T04:08:07;-5.00;98.40
16412;DHT22;8315;52.104;6.304;2022-12-18T04:10:38;-5.00;98.40
16412;DHT22;8315;52.104;6.304;2022-12-18T04:13:06;-5.00;98.40
16412;DHT22;8315;52.104;6.304;2022-12-18T04:15:34;-5.00;98.40
16412;DHT22;8315;52.104;6.304;2022-12-18T04:18:04;-5.10;98.40
16412;DHT22;8315;52.104;6.304;2022-12-18T04:20:38;-5.10;98.40
16412;DHT22;8315;52.104;6.304;2022-12-18T04:23:06;-5.10;98.40
16412;DHT22;8315;52.104;6.304;2022-12-18T04:25:33;-5.10;98.40
16412;DHT22;8315;52.104;6.304;2022-12-18T04:28:11;-5.10;98.40
16412;DHT22;8315;52.104;6.304;2022-12-18T04:30:38;-5.10;98.40
16412;DHT22;8315;52.104;6.304;2022-12-18T04:33:08;-5.00;98.40
16412;DHT22;8315;52.104;6.304;2022-12-18T04:35:35;-5.00;98.40
16412;DHT22;8315;52.104;6.304;2022-12-18T04:38:02;-5.10;98.40
16412;DHT22;8315;52.104;6.304;2022-12-18T04:40:28;-5.00;98.40
16412;DHT22;8315;52.104;6.304;2022-12-18T04:42:56;-4.90;98.40
16412;DHT22;8315;52.104;6.304;2022-12-18T04:45:24;-4.90;98.40
16412;DHT22;8315;52.104;6.304;2022-12-18T04:47:51;-4.90;98.40
16412;DHT22;8315;52.104;6.304;2022-12-18T04:50:18;-4.90;98.40
16412;DHT22;8315;52.104;6.304;2022-12-18T04:52:45;-5.00;98.40
16412;DHT22;8315;52.104;6.304;2022-12-18T04:55:12;-5.10;98.40
16412;DHT22;8315;52.104;6.304;2022-12-18T04:57:39;-5.00;98.40
16412;DHT22;8315;52.104;6.304;2022-12-18T05:00:06;-5.00;98.40
16412;DHT22;8315;52.104;6.304;2022-12-18T05:02:35;-4.90;98.40
16412;DHT22;8315;52.104;6.304;2022-12-18T05:05:02;-4.90;98.40
16412;DHT22;8315;52.104;6.304;2022-12-18T05:07:29;-4.90;98.40
16412;DHT22;8315;52.104;6.304;2022-12-18T05:09:56;-4.90;98.40
16412;DHT22;8315;52.104;6.304;2022-12-18T05:12:23;-4.90;98.40
16412;DHT22;8315;52.104;6.304;2022-12-18T05:14:49;-4.90;98.40
16412;DHT22;8315;52.104;6.304;2022-12-18T05:17:16;-4.90;98.40
16412;DHT22;8315;52.104;6.304;2022-12-18T05:19:45;-4.90;98.40
16412;DHT22;8315;52.104;6.304;2022-12-18T05:22:11;-5.10;98.40
16412;DHT22;8315;52.104;6.304;2022-12-18T05:24:38;-5.20;98.40
16412;DHT22;8315;52.104;6.304;2022-12-18T05:27:05;-5.10;98.40
16412;DHT22;8315;52.104;6.304;2022-12-18T05:29:32;-5.00;98.40
16412;DHT22;8315;52.104;6.304;2022-12-18T05:31:58;-4.90;98.40
16412;DHT22;8315;52.104;6.304;2022-12-18T05:34:25;-4.90;98.40
16412;DHT22;8315;52.104;6.304;2022-12-18T05:36:53;-4.80;98.40
16412;DHT22;8315;52.104;6.304;2022-12-18T05:39:20;-4.90;98.40
16412;DHT22;8315;52.104;6.304;2022-12-18T05:41:47;-4.90;98.40
16412;DHT22;8315;52.104;6.304;2022-12-18T05:44:14;-4.90;98.40
16412;DHT22;8315;52.104;6.304;2022-12-18T05:46:41;-4.90;98.40
16412;DHT22;8315;52.104;6.304;2022-12-18T05:49:08;-4.90;98.40
16412;DHT22;8315;52.104;6.304;2022-12-18T05:51:34;-4.90;98.40
16412;DHT22;8315;52.104;6.304;2022-12-18T05:54:02;-4.90;98.40
16412;DHT22;8315;52.104;6.304;2022-12-18T05:56:30;-4.90;98.40
16412;DHT22;8315;52.104;6.304;2022-12-18T05:58:56;-4.90;98.40
16412;DHT22;8315;52.104;6.304;2022-12-18T06:01:25;-4.90;98.40
16412;DHT22;8315;52.104;6.304;2022-12-18T06:03:52;-5.00;98.40
16412;DHT22;8315;52.104;6.304;2022-12-18T06:06:20;-5.00;98.40
16412;DHT22;8315;52.104;6.304;2022-12-18T06:08:48;-5.00;98.40
16412;DHT22;8315;52.104;6.304;2022-12-18T06:11:18;-5.00;98.40
16412;DHT22;8315;52.104;6.304;2022-12-18T06:13:45;-5.10;98.40
16412;DHT22;8315;52.104;6.304;2022-12-18T06:16:12;-5.10;98.40
16412;DHT22;8315;52.104;6.304;2022-12-18T06:18:39;-5.00;98.40
16412;DHT22;8315;52.104;6.304;2022-12-18T06:21:06;-5.00;98.40
16412;DHT22;8315;52.104;6.304;2022-12-18T06:23:33;-5.10;98.40
16412;DHT22;8315;52.104;6.304;2022-12-18T06:26:03;-5.10;98.40
16412;DHT22;8315;52.104;6.304;2022-12-18T06:28:32;-5.10;98.40
16412;DHT22;8315;52.104;6.304;2022-12-18T06:30:58;-5.10;98.40
16412;DHT22;8315;52.104;6.304;2022-12-18T06:33:25;-5.30;98.40
16412;DHT22;8315;52.104;6.304;2022-12-18T06:35:52;-5.20;98.40
16412;DHT22;8315;52.104;6.304;2022-12-18T06:38:19;-5.20;98.40
16412;DHT22;8315;52.104;6.304;2022-12-18T06:40:46;-5.20;98.40
16412;DHT22;8315;52.104;6.304;2022-12-18T06:43:13;-5.20;98.40
16412;DHT22;8315;52.104;6.304;2022-12-18T06:45:41;-5.20;98.40
16412;DHT22;8315;52.104;6.304;2022-12-18T06:48:08;-5.20;98.40
16412;DHT22;8315;52.104;6.304;2022-12-18T06:50:35;-5.20;98.40
16412;DHT22;8315;52.104;6.304;2022-12-18T06:53:01;-5.20;98.40
16412;DHT22;8315;52.104;6.304;2022-12-18T06:55:28;-5.30;98.40
16412;DHT22;8315;52.104;6.304;2022-12-18T06:57:55;-5.30;98.40
16412;DHT22;8315;52.104;6.304;2022-12-18T07:00:22;-5.20;98.40
16412;DHT22;8315;52.104;6.304;2022-12-18T07:02:50;-5.20;98.40
16412;DHT22;8315;52.104;6.304;2022-12-18T07:05:17;-5.30;98.40
16412;DHT22;8315;52.104;6.304;2022-12-18T07:07:44;-5.30;98.40
16412;DHT22;8315;52.104;6.304;2022-12-18T07:10:11;-5.30;98.40
16412;DHT22;8315;52.104;6.304;2022-12-18T07:12:37;-5.40;98.40
16412;DHT22;8315;52.104;6.304;2022-12-18T07:15:05;-5.50;98.40
16412;DHT22;8315;52.104;6.304;2022-12-18T07:17:32;-5.50;98.40
16412;DHT22;8315;52.104;6.304;2022-12-18T07:20:00;-5.50;98.40
16412;DHT22;8315;52.104;6.304;2022-12-18T07:22:27;-5.40;98.40
16412;DHT22;8315;52.104;6.304;2022-12-18T07:24:54;-5.30;98.40
16412;DHT22;8315;52.104;6.304;2022-12-18T07:27:21;-5.30;98.40
16412;DHT22;8315;52.104;6.304;2022-12-18T07:29:48;-5.30;98.40
16412;DHT22;8315;52.104;6.304;2022-12-18T07:32:15;-5.30;98.40
16412;DHT22;8315;52.104;6.304;2022-12-18T07:34:41;-5.20;98.40
16412;DHT22;8315;52.104;6.304;2022-12-18T07:37:10;-5.20;98.40
16412;DHT22;8315;52.104;6.304;2022-12-18T07:39:37;-5.10;98.40
16412;DHT22;8315;52.104;6.304;2022-12-18T07:42:04;-5.10;98.40
16412;DHT22;8315;52.104;6.304;2022-12-18T07:44:53;-5.10;98.40
16412;DHT22;8315;52.104;6.304;2022-12-18T07:47:19;-5.00;98.40
16412;DHT22;8315;52.104;6.304;2022-12-18T07:49:46;-5.00;98.40
16412;DHT22;8315;52.104;6.304;2022-12-18T07:52:15;-5.00;98.40
16412;DHT22;8315;52.104;6.304;2022-12-18T07:54:42;-4.90;98.40
16412;DHT22;8315;52.104;6.304;2022-12-18T07:57:08;-4.90;98.40
16412;DHT22;8315;52.104;6.304;2022-12-18T07:59:35;-4.90;98.40
16412;DHT22;8315;52.104;6.304;2022-12-18T08:02:02;-5.00;98.40
16412;DHT22;8315;52.104;6.304;2022-12-18T08:04:29;-5.10;98.40
16412;DHT22;8315;52.104;6.304;2022-12-18T08:06:56;-5.10;98.40
16412;DHT22;8315;52.104;6.304;2022-12-18T08:09:24;-5.10;98.40
16412;DHT22;8315;52.104;6.304;2022-12-18T08:11:51;-5.10;98.40
16412;DHT22;8315;52.104;6.304;2022-12-18T08:14:18;-5.00;98.40
16412;DHT22;8315;52.104;6.304;2022-12-18T08:16:45;-5.00;98.40
16412;DHT22;8315;52.104;6.304;2022-12-18T08:19:11;-5.00;98.40
16412;DHT22;8315;52.104;6.304;2022-12-18T08:21:38;-4.90;98.40
16412;DHT22;8315;52.104;6.304;2022-12-18T08:24:05;-4.80;98.40
16412;DHT22;8315;52.104;6.304;2022-12-18T08:26:34;-4.80;98.40
16412;DHT22;8315;52.104;6.304;2022-12-18T08:29:01;-4.70;98.40
16412;DHT22;8315;52.104;6.304;2022-12-18T08:31:28;-4.60;98.40
16412;DHT22;8315;52.104;6.304;2022-12-18T08:33:56;-4.50;98.40
16412;DHT22;8315;52.104;6.304;2022-12-18T08:36:23;-4.40;98.40
16412;DHT22;8315;52.104;6.304;2022-12-18T08:38:51;-4.30;98.40
16412;DHT22;8315;52.104;6.304;2022-12-18T08:41:18;-4.20;98.40
16412;DHT22;8315;52.104;6.304;2022-12-18T08:43:46;-4.10;98.40
16412;DHT22;8315;52.104;6.304;2022-12-18T08:46:32;-4.10;98.40
16412;DHT22;8315;52.104;6.304;2022-12-18T08:49:00;-4.00;98.40
16412;DHT22;8315;52.104;6.304;2022-12-18T08:51:27;-4.00;98.40
16412;DHT22;8315;52.104;6.304;2022-12-18T08:53:54;-3.90;98.40
16412;DHT22;8315;52.104;6.304;2022-12-18T08:56:21;-3.80;98.40
16412;DHT22;8315;52.104;6.304;2022-12-18T08:58:50;-3.80;98.40
16412;DHT22;8315;52.104;6.304;2022-12-18T09:01:17;-3.70;98.40
16412;DHT22;8315;52.104;6.304;2022-12-18T09:03:44;-3.60;98.40
16412;DHT22;8315;52.104;6.304;2022-12-18T09:06:14;-3.60;98.40
16412;DHT22;8315;52.104;6.304;2022-12-18T09:08:41;-3.50;98.40
16412;DHT22;8315;52.104;6.304;2022-12-18T09:11:11;-3.40;98.40
16412;DHT22;8315;52.104;6.304;2022-12-18T09:13:39;-3.30;98.40
16412;DHT22;8315;52.104;6.304;2022-12-18T09:16:07;-3.30;98.40
16412;DHT22;8315;52.104;6.304;2022-12-18T09:18:34;-3.30;98.40
16412;DHT22;8315;52.104;6.304;2022-12-18T09:21:06;-3.30;98.40
16412;DHT22;8315;52.104;6.304;2022-12-18T09:23:34;-3.20;98.40
16412;DHT22;8315;52.104;6.304;2022-12-18T09:26:01;-3.10;98.40
16412;DHT22;8315;52.104;6.304;2022-12-18T09:28:28;-3.00;98.40
16412;DHT22;8315;52.104;6.304;2022-12-18T09:30:54;-2.90;98.40
16412;DHT22;8315;52.104;6.304;2022-12-18T09:33:22;-2.80;98.40
16412;DHT22;8315;52.104;6.304;2022-12-18T09:35:49;-2.80;98.40
16412;DHT22;8315;52.104;6.304;2022-12-18T09:38:17;-2.70;98.40
16412;DHT22;8315;52.104;6.304;2022-12-18T09:40:46;-2.80;98.40
16412;DHT22;8315;52.104;6.304;2022-12-18T09:43:15;-2.70;98.40
16412;DHT22;8315;52.104;6.304;2022-12-18T09:45:45;-2.70;98.40
16412;DHT22;8315;52.104;6.304;2022-12-18T09:48:14;-2.70;98.40
16412;DHT22;8315;52.104;6.304;2022-12-18T09:50:44;-2.60;98.40
16412;DHT22;8315;52.104;6.304;2022-12-18T09:53:12;-2.50;98.40
16412;DHT22;8315;52.104;6.304;2022-12-18T09:55:42;-2.40;98.40
16412;DHT22;8315;52.104;6.304;2022-12-18T09:58:13;-2.40;98.40
16412;DHT22;8315;52.104;6.304;2022-12-18T10:00:42;-2.40;98.40
16412;DHT22;8315;52.104;6.304;2022-12-18T10:03:10;-2.40;98.40
16412;DHT22;8315;52.104;6.304;2022-12-18T10:05:40;-2.30;98.40
16412;DHT22;8315;52.104;6.304;2022-12-18T10:08:13;-2.30;98.40
16412;DHT22;8315;52.104;6.304;2022-12-18T10:10:46;-2.30;98.40
16412;DHT22;8315;52.104;6.304;2022-12-18T10:13:16;-2.20;98.40
16412;DHT22;8315;52.104;6.304;2022-12-18T10:15:51;-2.20;98.40
16412;DHT22;8315;52.104;6.304;2022-12-18T10:18:23;-2.20;98.40
16412;DHT22;8315;52.104;6.304;2022-12-18T10:20:56;-2.20;98.40
16412;DHT22;8315;52.104;6.304;2022-12-18T10:23:28;-2.10;98.40
16412;DHT22;8315;52.104;6.304;2022-12-18T10:26:00;-2.00;98.40
16412;DHT22;8315;52.104;6.304;2022-12-18T10:28:29;-2.00;98.40
16412;DHT22;8315;52.104;6.304;2022-12-18T10:30:56;-2.00;98.40
16412;DHT22;8315;52.104;6.304;2022-12-18T10:33:24;-1.90;98.40
16412;DHT22;8315;52.104;6.304;2022-12-18T10:35:54;-1.80;98.40
16412;DHT22;8315;52.104;6.304;2022-12-18T10:38:22;-1.90;98.40
16412;DHT22;8315;52.104;6.304;2022-12-18T10:40:52;-1.90;98.40
16412;DHT22;8315;52.104;6.304;2022-12-18T10:43:22;-1.80;98.40
16412;DHT22;8315;52.104;6.304;2022-12-18T10:46:04;-1.70;98.40
16412;DHT22;8315;52.104;6.304;2022-12-18T10:48:40;-1.60;98.40
16412;DHT22;8315;52.104;6.304;2022-12-18T10:51:19;-1.50;98.40
16412;DHT22;8315;52.104;6.304;2022-12-18T10:53:50;-1.50;98.40
16412;DHT22;8315;52.104;6.304;2022-12-18T10:56:20;-1.50;98.40
16412;DHT22;8315;52.104;6.304;2022-12-18T10:58:55;-1.40;98.40
16412;DHT22;8315;52.104;6.304;2022-12-18T11:01:23;-1.40;98.40
16412;DHT22;8315;52.104;6.304;2022-12-18T11:03:58;-1.50;98.40
16412;DHT22;8315;52.104;6.304;2022-12-18T11:06:26;-1.50;98.40
16412;DHT22;8315;52.104;6.304;2022-12-18T11:08:57;-1.50;98.40
16412;DHT22;8315;52.104;6.304;2022-12-18T11:11:26;-1.40;98.40
16412;DHT22;8315;52.104;6.304;2022-12-18T11:13:57;-1.40;98.40
16412;DHT22;8315;52.104;6.304;2022-12-18T11:16:26;-1.40;98.40
16412;DHT22;8315;52.104;6.304;2022-12-18T11:18:53;-1.30;98.40
16412;DHT22;8315;52.104;6.304;2022-12-18T11:21:20;-1.30;98.40
16412;DHT22;8315;52.104;6.304;2022-12-18T11:23:48;-1.20;98.40
16412;DHT22;8315;52.104;6.304;2022-12-18T11:26:16;-1.20;98.40
16412;DHT22;8315;52.104;6.304;2022-12-18T11:28:46;-1.20;98.40
16412;DHT22;8315;52.104;6.304;2022-12-18T11:31:21;-1.20;98.40
16412;DHT22;8315;52.104;6.304;2022-12-18T11:33:52;-1.10;98.40
16412;DHT22;8315;52.104;6.304;2022-12-18T11:36:21;-1.00;98.40
16412;DHT22;8315;52.104;6.304;2022-12-18T11:38:48;-1.10;98.40
16412;DHT22;8315;52.104;6.304;2022-12-18T11:41:23;-1.10;98.40
16412;DHT22;8315;52.104;6.304;2022-12-18T11:44:15;-1.10;98.40
16412;DHT22;8315;52.104;6.304;2022-12-18T11:46:45;-1.00;98.40
16412;DHT22;8315;52.104;6.304;2022-12-18T11:49:14;-1.00;98.40
16412;DHT22;8315;52.104;6.304;2022-12-18T11:51:46;-0.90;98.40
16412;DHT22;8315;52.104;6.304;2022-12-18T11:54:16;-0.80;98.40
16412;DHT22;8315;52.104;6.304;2022-12-18T11:56:44;-0.80;98.40
16412;DHT22;8315;52.104;6.304;2022-12-18T11:59:15;-0.80;98.40
16412;DHT22;8315;52.104;6.304;2022-12-18T12:01:51;-0.70;98.40
16412;DHT22;8315;52.104;6.304;2022-12-18T12:07:16;-0.70;98.40
16412;DHT22;8315;52.104;6.304;2022-12-18T12:09:48;-0.60;98.40
16412;DHT22;8315;52.104;6.304;2022-12-18T12:12:24;-0.60;98.40
16412;DHT22;8315;52.104;6.304;2022-12-18T12:14:59;-0.50;98.40
16412;DHT22;8315;52.104;6.304;2022-12-18T12:17:31;-0.60;98.40
16412;DHT22;8315;52.104;6.304;2022-12-18T12:20:05;-0.60;98.40
16412;DHT22;8315;52.104;6.304;2022-12-18T12:22:37;-0.60;98.40
16412;DHT22;8315;52.104;6.304;2022-12-18T12:25:13;-0.50;98.40
16412;DHT22;8315;52.104;6.304;2022-12-18T12:27:50;-0.50;98.40
16412;DHT22;8315;52.104;6.304;2022-12-18T12:30:26;-0.50;98.40
16412;DHT22;8315;52.104;6.304;2022-12-18T12:33:02;-0.50;98.40
16412;DHT22;8315;52.104;6.304;2022-12-18T12:35:40;-0.50;98.40
16412;DHT22;8315;52.104;6.304;2022-12-18T12:38:12;-0.40;98.40
16412;DHT22;8315;52.104;6.304;2022-12-18T12:40:41;-0.40;98.40
16412;DHT22;8315;52.104;6.304;2022-12-18T12:43:12;-0.40;98.40
16412;DHT22;8315;52.104;6.304;2022-12-18T12:45:48;-0.40;98.40
16412;DHT22;8315;52.104;6.304;2022-12-18T12:48:18;-0.40;98.40
16412;DHT22;8315;52.104;6.304;2022-12-18T12:50:50;-0.30;98.40
16412;DHT22;8315;52.104;6.304;2022-12-18T12:53:20;-0.30;98.40
16412;DHT22;8315;52.104;6.304;2022-12-18T12:55:50;-0.30;98.40
16412;DHT22;8315;52.104;6.304;2022-12-18T12:58:19;-0.30;98.40
16412;DHT22;8315;52.104;6.304;2022-12-18T13:00:55;-0.20;98.40
16412;DHT22;8315;52.104;6.304;2022-12-18T13:03:28;-0.20;98.40
16412;DHT22;8315;52.104;6.304;2022-12-18T13:05:58;-0.20;98.40
16412;DHT22;8315;52.104;6.304;2022-12-18T13:08:27;-0.30;98.40
16412;DHT22;8315;52.104;6.304;2022-12-18T13:10:55;-0.10;98.40
16412;DHT22;8315;52.104;6.304;2022-12-18T13:13:49;-0.10;98.40
16412;DHT22;8315;52.104;6.304;2022-12-18T13:16:19;-0.10;98.40
16412;DHT22;8315;52.104;6.304;2022-12-18T13:18:50;-0.20;98.40
16412;DHT22;8315;52.104;6.304;2022-12-18T13:21:20;-0.20;98.40
16412;DHT22;8315;52.104;6.304;2022-12-18T13:23:48;-0.20;98.40
16412;DHT22;8315;52.104;6.304;2022-12-18T13:26:28;-0.20;98.40
16412;DHT22;8315;52.104;6.304;2022-12-18T13:28:59;-0.20;98.40
16412;DHT22;8315;52.104;6.304;2022-12-18T13:34:37;-0.10;98.40
16412;DHT22;8315;52.104;6.304;2022-12-18T13:43:24;-0.10;98.40
16412;DHT22;8315;52.104;6.304;2022-12-18T13:45:59;-0.10;98.40
16412;DHT22;8315;52.104;6.304;2022-12-18T13:48:41;-0.10;98.40
16412;DHT22;8315;52.104;6.304;2022-12-18T13:51:18;-0.10;98.40
16412;DHT22;8315;52.104;6.304;2022-12-18T13:53:47;-0.10;98.40
16412;DHT22;8315;52.104;6.304;2022-12-18T13:56:16;-0.10;98.40
16412;DHT22;8315;52.104;6.304;2022-12-18T13:58:43;-0.10;98.40
16412;DHT22;8315;52.104;6.304;2022-12-18T14:01:20;0.00;98.40
16412;DHT22;8315;52.104;6.304;2022-12-18T14:03:48;0.00;98.40
16412;DHT22;8315;52.104;6.304;2022-12-18T14:06:20;0.10;98.40
16412;DHT22;8315;52.104;6.304;2022-12-18T14:08:46;0.00;98.40
16412;DHT22;8315;52.104;6.304;2022-12-18T14:11:17;0.10;98.40
16412;DHT22;8315;52.104;6.304;2022-12-18T14:13:46;0.10;98.40
16412;DHT22;8315;52.104;6.304;2022-12-18T14:16:14;0.10;98.40
16412;DHT22;8315;52.104;6.304;2022-12-18T14:18:43;0.10;98.40
16412;DHT22;8315;52.104;6.304;2022-12-18T14:21:17;0.10;98.40
16412;DHT22;8315;52.104;6.304;2022-12-18T14:23:46;0.00;98.40
16412;DHT22;8315;52.104;6.304;2022-12-18T14:26:20;0.00;98.40
16412;DHT22;8315;52.104;6.304;2022-12-18T14:28:49;0.00;98.40
16412;DHT22;8315;52.104;6.304;2022-12-18T14:31:19;0.00;98.40
16412;DHT22;8315;52.104;6.304;2022-12-18T14:33:47;0.00;98.40
16412;DHT22;8315;52.104;6.304;2022-12-18T14:36:15;0.00;98.40
16412;DHT22;8315;52.104;6.304;2022-12-18T14:38:47;0.00;98.40
16412;DHT22;8315;52.104;6.304;2022-12-18T14:41:16;0.00;98.40
16412;DHT22;8315;52.104;6.304;2022-12-18T14:43:44;0.00;98.40
16412;DHT22;8315;52.104;6.304;2022-12-18T14:46:25;0.00;98.40
16412;DHT22;8315;52.104;6.304;2022-12-18T14:48:55;0.00;98.40
16412;DHT22;8315;52.104;6.304;2022-12-18T14:51:22;0.10;98.40
16412;DHT22;8315;52.104;6.304;2022-12-18T14:53:54;0.00;98.40
16412;DHT22;8315;52.104;6.304;2022-12-18T14:56:22;0.10;98.40
16412;DHT22;8315;52.104;6.304;2022-12-18T14:58:51;0.10;98.40
16412;DHT22;8315;52.104;6.304;2022-12-18T15:01:21;0.10;98.40
16412;DHT22;8315;52.104;6.304;2022-12-18T15:03:50;0.10;98.40
16412;DHT22;8315;52.104;6.304;2022-12-18T15:06:18;0.20;98.40
16412;DHT22;8315;52.104;6.304;2022-12-18T15:09:00;0.10;98.40
16412;DHT22;8315;52.104;6.304;2022-12-18T15:11:32;0.00;98.40
16412;DHT22;8315;52.104;6.304;2022-12-18T15:16:50;0.00;98.40
16412;DHT22;8315;52.104;6.304;2022-12-18T15:19:18;0.10;98.40
16412;DHT22;8315;52.104;6.304;2022-12-18T15:21:45;0.10;98.40
16412;DHT22;8315;52.104;6.304;2022-12-18T15:24:17;0.10;98.40
16412;DHT22;8315;52.104;6.304;2022-12-18T15:26:45;0.10;98.40
16412;DHT22;8315;52.104;6.304;2022-12-18T15:29:17;0.10;98.40
16412;DHT22;8315;52.104;6.304;2022-12-18T15:31:57;0.10;98.40
16412;DHT22;8315;52.104;6.304;2022-12-18T15:34:25;0.10;98.40
16412;DHT22;8315;52.104;6.304;2022-12-18T15:36:53;0.20;98.40
16412;DHT22;8315;52.104;6.304;2022-12-18T15:39:21;0.20;98.40
16412;DHT22;8315;52.104;6.304;2022-12-18T15:41:48;0.20;98.40
16412;DHT22;8315;52.104;6.304;2022-12-18T15:44:32;0.30;98.40
16412;DHT22;8315;52.104;6.304;2022-12-18T15:46:59;0.30;98.40
16412;DHT22;8315;52.104;6.304;2022-12-18T15:49:26;0.20;98.40
16412;DHT22;8315;52.104;6.304;2022-12-18T15:51:53;0.20;98.40
16412;DHT22;8315;52.104;6.304;2022-12-18T15:54:22;0.30;98.40
16412;DHT22;8315;52.104;6.304;2022-12-18T15:57:03;0.30;98.40
16412;DHT22;8315;52.104;6.304;2022-12-18T15:59:47;0.40;98.40
16412;DHT22;8315;52.104;6.304;2022-12-18T16:02:15;0.30;98.40
16412;DHT22;8315;52.104;6.304;2022-12-18T16:04:43;0.30;98.40
16412;DHT22;8315;52.104;6.304;2022-12-18T16:07:11;0.40;98.40
16412;DHT22;8315;52.104;6.304;2022-12-18T16:09:39;0.40;98.40
16412;DHT22;8315;52.104;6.304;2022-12-18T16:12:09;0.40;98.40
16412;DHT22;8315;52.104;6.304;2022-12-18T16:14:40;0.40;98.40
16412;DHT22;8315;52.104;6.304;2022-12-18T16:17:08;0.40;98.40
16412;DHT22;8315;52.104;6.304;2022-12-18T16:19:36;0.40;98.40